TimeMDT,TemperatureF,Dew PointF,Humidity,Sea Level PressureIn,VisibilityMPH,Wind Direction,Wind SpeedMPH,Gust SpeedMPH,PrecipitationIn,Events,Conditions,WindDirDegrees,DateUTC
12:15 AM,61.7,34.2,36,29.98,10.0,South,9.2,-,N/A,,Clear,190,2013-09-26 06:15:00
12:35 AM,61.9,33.4,34,29.98,10.0,SSW,8.1,-,N/A,,Clear,200,2013-09-26 06:35:00
12:55 AM,62.4,32.4,32,29.98,10.0,SSW,8.1,-,N/A,,Clear,210,2013-09-26 06:55:00
1:15 AM,63.3,32.0,31,29.99,10.0,SSW,8.1,-,N/A,,Clear,210,2013-09-26 07:15:00
1:35 AM,63.3,31.5,30,29.99,10.0,SW,3.5,-,N/A,,Clear,220,2013-09-26 07:35:00
1:55 AM,63.7,31.3,30,30.00,10.0,SW,5.8,-,N/A,,Clear,230,2013-09-26 07:55:00
2:15 AM,62.4,31.1,31,30.00,10.0,SW,3.5,-,N/A,,Clear,230,2013-09-26 08:15:00
2:35 AM,61.2,31.1,32,30.00,10.0,WSW,3.5,-,N/A,,Clear,250,2013-09-26 08:35:00
2:55 AM,60.8,31.3,33,30.00,10.0,WSW,4.6,-,N/A,,Clear,250,2013-09-26 08:55:00
3:15 AM,61.0,30.7,32,29.99,10.0,SW,4.6,-,N/A,,Clear,230,2013-09-26 09:15:00
3:35 AM,60.4,30.7,33,29.99,10.0,SSW,4.6,-,N/A,,Clear,210,2013-09-26 09:35:00
3:55 AM,61.0,30.2,31,29.99,10.0,SW,4.6,-,N/A,,Clear,230,2013-09-26 09:55:00
4:15 AM,59.9,30.6,33,29.99,10.0,WSW,5.8,-,N/A,,Clear,250,2013-09-26 10:15:00
4:35 AM,59.9,30.0,32,29.99,10.0,SW,6.9,-,N/A,,Clear,230,2013-09-26 10:35:00
4:55 AM,59.9,29.3,31,29.99,10.0,SW,6.9,-,N/A,,Clear,230,2013-09-26 10:55:00
5:15 AM,60.4,28.2,29,29.99,10.0,SW,8.1,-,N/A,,Clear,220,2013-09-26 11:15:00
5:35 AM,60.1,27.9,29,30.00,10.0,SW,6.9,-,N/A,,Clear,220,2013-09-26 11:35:00
5:55 AM,59.5,27.7,30,30.00,10.0,SSW,5.8,-,N/A,,Clear,210,2013-09-26 11:55:00
6:15 AM,58.1,28.0,32,30.01,10.0,SW,5.8,-,N/A,,Clear,220,2013-09-26 12:15:00
6:35 AM,58.8,27.3,30,30.01,10.0,WSW,4.6,-,N/A,,Clear,240,2013-09-26 12:35:00
6:55 AM,58.5,26.8,30,30.01,10.0,SW,5.8,-,N/A,,Clear,230,2013-09-26 12:55:00
7:15 AM,58.8,26.2,29,30.01,10.0,SW,5.8,-,N/A,,Clear,230,2013-09-26 13:15:00
7:35 AM,59.5,25.9,28,30.02,10.0,SW,4.6,-,N/A,,Clear,220,2013-09-26 13:35:00
7:55 AM,59.4,27.7,30,30.03,10.0,South,3.5,-,N/A,,Clear,170,2013-09-26 13:55:00
8:15 AM,59.4,29.5,32,30.03,10.0,South,3.5,-,N/A,,Clear,170,2013-09-26 14:15:00
8:35 AM,59.9,32.0,35,30.03,10.0,Calm,Calm,-,N/A,,Clear,0,2013-09-26 14:35:00
8:55 AM,60.8,32.0,34,30.03,10.0,SE,3.5,-,N/A,,Clear,140,2013-09-26 14:55:00
9:15 AM,62.4,30.2,30,30.03,10.0,South,6.9,-,N/A,,Clear,170,2013-09-26 15:15:00
9:35 AM,63.5,27.5,26,30.03,10.0,South,16.1,21.9,N/A,,Clear,180,2013-09-26 15:35:00
9:55 AM,64.2,26.1,24,30.03,10.0,South,15.0,19.6,N/A,,Clear,190,2013-09-26 15:55:00
10:15 AM,64.6,27.9,25,30.04,10.0,South,10.4,17.3,N/A,,Clear,180,2013-09-26 16:15:00
10:35 AM,64.6,28.6,26,30.04,10.0,South,15.0,23.0,N/A,,Clear,170,2013-09-26 16:35:00
10:55 AM,64.9,29.1,26,30.04,10.0,South,13.8,18.4,N/A,,Clear,170,2013-09-26 16:55:00
11:15 AM,65.5,24.6,21,30.04,10.0,South,20.7,27.6,N/A,,Clear,190,2013-09-26 17:15:00
11:35 AM,65.7,24.1,21,30.03,10.0,South,13.8,26.5,N/A,,Clear,170,2013-09-26 17:35:00
11:55 AM,66.4,23.7,20,30.03,10.0,South,12.7,25.3,N/A,,Clear,180,2013-09-26 17:55:00
12:15 PM,66.9,25.0,21,30.02,10.0,South,10.4,20.7,N/A,,Clear,190,2013-09-26 18:15:00
12:35 PM,67.3,26.6,22,30.01,10.0,South,15.0,21.9,N/A,,Clear,170,2013-09-26 18:35:00
12:55 PM,68.5,25.0,19,30.01,10.0,SSW,12.7,25.3,N/A,,Clear,210,2013-09-26 18:55:00
1:15 PM,68.9,23.9,18,30.01,10.0,South,19.6,-,N/A,,Clear,170,2013-09-26 19:15:00
1:35 PM,68.9,25.9,20,30.00,10.0,South,15.0,29.9,N/A,,Clear,190,2013-09-26 19:35:00
1:55 PM,69.1,26.4,20,29.99,10.0,SSW,11.5,28.8,N/A,,Clear,200,2013-09-26 19:55:00
2:15 PM,69.8,26.2,20,29.98,10.0,SSW,21.9,26.5,N/A,,Clear,200,2013-09-26 20:15:00
2:35 PM,70.0,26.1,19,29.98,10.0,SSW,17.3,26.5,N/A,,Clear,200,2013-09-26 20:35:00
2:55 PM,70.9,28.0,20,29.97,10.0,South,16.1,-,N/A,,Clear,180,2013-09-26 20:55:00
3:15 PM,70.5,28.2,21,29.97,10.0,South,16.1,27.6,N/A,,Clear,170,2013-09-26 21:15:00
3:35 PM,71.1,28.9,21,29.96,10.0,South,15.0,26.5,N/A,,Clear,180,2013-09-26 21:35:00
3:55 PM,71.2,28.4,20,29.96,10.0,South,17.3,32.2,N/A,,Clear,170,2013-09-26 21:55:00
4:15 PM,71.6,28.0,20,29.95,10.0,South,17.3,25.3,N/A,,Clear,170,2013-09-26 22:15:00
4:35 PM,71.6,25.5,18,29.95,10.0,South,19.6,28.8,N/A,,Clear,190,2013-09-26 22:35:00
4:55 PM,72.0,25.7,18,29.95,10.0,SSW,26.5,32.2,N/A,,Clear,200,2013-09-26 22:55:00
5:15 PM,72.0,25.9,18,29.95,10.0,South,19.6,29.9,N/A,,Clear,190,2013-09-26 23:15:00
5:35 PM,71.8,26.8,19,29.94,10.0,South,15.0,28.8,N/A,,Clear,180,2013-09-26 23:35:00
5:55 PM,71.6,27.1,19,29.94,10.0,South,17.3,26.5,N/A,,Clear,190,2013-09-26 23:55:00
6:15 PM,70.9,30.6,22,29.94,10.0,South,16.1,28.8,N/A,,Clear,180,2013-09-27 00:15:00
6:35 PM,69.6,33.4,26,29.94,10.0,South,16.1,29.9,N/A,,Clear,180,2013-09-27 00:35:00
6:55 PM,68.9,34.5,28,29.94,10.0,South,18.4,23.0,N/A,,Clear,180,2013-09-27 00:55:00
7:15 PM,68.2,34.9,29,29.94,10.0,South,12.7,20.7,N/A,,Scattered Clouds,180,2013-09-27 01:15:00
7:35 PM,67.5,35.1,30,29.94,10.0,South,12.7,19.6,N/A,,Clear,170,2013-09-27 01:35:00
7:55 PM,67.1,36.3,32,29.95,10.0,South,16.1,19.6,N/A,,Clear,170,2013-09-27 01:55:00
8:15 PM,66.6,37.4,34,29.95,10.0,South,15.0,20.7,N/A,,Clear,180,2013-09-27 02:15:00
8:35 PM,66.4,37.2,34,29.97,10.0,South,16.1,25.3,N/A,,Scattered Clouds,180,2013-09-27 02:35:00
8:55 PM,65.8,34.9,32,29.98,10.0,South,12.7,21.9,N/A,,Clear,180,2013-09-27 02:55:00
9:15 PM,65.1,32.0,29,29.98,10.0,South,9.2,-,N/A,,Clear,190,2013-09-27 03:15:00
9:35 PM,64.0,31.5,30,29.99,10.0,South,8.1,-,N/A,,Clear,180,2013-09-27 03:35:00
9:55 PM,63.3,30.2,29,30.00,10.0,South,9.2,-,N/A,,Clear,190,2013-09-27 03:55:00
10:15 PM,64.0,28.6,26,30.00,10.0,South,11.5,-,N/A,,Scattered Clouds,190,2013-09-27 04:15:00
10:35 PM,63.9,29.1,27,30.00,10.0,SSW,11.5,16.1,N/A,,Scattered Clouds,200,2013-09-27 04:35:00
10:55 PM,63.7,29.3,27,30.01,10.0,SSW,12.7,17.3,N/A,,Scattered Clouds,200,2013-09-27 04:55:00
11:15 PM,63.5,29.8,28,30.01,10.0,SSW,9.2,-,N/A,,Mostly Cloudy,200,2013-09-27 05:15:00
11:35 PM,63.0,30.6,30,30.01,10.0,SSW,9.2,-,N/A,,Mostly Cloudy,200,2013-09-27 05:35:00
11:55 PM,63.7,30.7,29,30.01,10.0,SSW,8.1,17.3,N/A,,Scattered Clouds,200,2013-09-27 05:55:00